sensor_id;sensor_type;location;lat;lon;timestamp;P1;durP1;ratioP1;P2;durP2;ratioP2
3991;SDS011;2010;48.194;16.394;2023-11-21T00:01:34;3.50;;;2.30;;
3991;SDS011;2010;48.194;16.394;2023-11-21T00:04:03;2.93;;;1.90;;
3991;SDS011;2010;48.194;16.394;2023-11-21T00:06:35;5.17;;;1.90;;
3991;SDS011;2010;48.194;16.394;2023-11-21T00:09:12;3.67;;;2.30;;
3991;SDS011;2010;48.194;16.394;2023-11-21T00:11:46;2.10;;;1.43;;
3991;SDS011;2010;48.194;16.394;2023-11-21T00:14:15;8.53;;;1.90;;
3991;SDS011;2010;48.194;16.394;2023-11-21T00:16:45;7.63;;;1.87;;
3991;SDS011;2010;48.194;16.394;2023-11-21T00:19:17;8.00;;;2.00;;
3991;SDS011;2010;48.194;16.394;2023-11-21T00:21:54;5.90;;;1.70;;
3991;SDS011;2010;48.194;16.394;2023-11-21T00:24:25;4.60;;;1.43;;
3991;SDS011;2010;48.194;16.394;2023-11-21T00:26:54;5.40;;;1.80;;
3991;SDS011;2010;48.194;16.394;2023-11-21T00:29:25;3.27;;;2.30;;
3991;SDS011;2010;48.194;16.394;2023-11-21T00:31:56;2.67;;;1.57;;
3991;SDS011;2010;48.194;16.394;2023-11-21T00:34:36;6.13;;;2.20;;
3991;SDS011;2010;48.194;16.394;2023-11-21T00:37:08;4.63;;;2.33;;
3991;SDS011;2010;48.194;16.394;2023-11-21T00:39:52;5.30;;;2.20;;
3991;SDS011;2010;48.194;16.394;2023-11-21T00:42:37;6.23;;;2.40;;
3991;SDS011;2010;48.194;16.394;2023-11-21T00:45:07;3.80;;;2.20;;
3991;SDS011;2010;48.194;16.394;2023-11-21T00:47:47;4.03;;;2.10;;
3991;SDS011;2010;48.194;16.394;2023-11-21T00:50:26;4.23;;;2.47;;
3991;SDS011;2010;48.194;16.394;2023-11-21T00:52:58;5.63;;;2.13;;
3991;SDS011;2010;48.194;16.394;2023-11-21T00:55:44;3.17;;;1.90;;
3991;SDS011;2010;48.194;16.394;2023-11-21T00:58:16;6.43;;;2.20;;
3991;SDS011;2010;48.194;16.394;2023-11-21T01:00:47;4.77;;;2.03;;
3991;SDS011;2010;48.194;16.394;2023-11-21T01:03:19;3.40;;;2.07;;
3991;SDS011;2010;48.194;16.394;2023-11-21T01:05:52;5.70;;;2.63;;
3991;SDS011;2010;48.194;16.394;2023-11-21T01:08:23;9.93;;;2.73;;
3991;SDS011;2010;48.194;16.394;2023-11-21T01:10:56;3.23;;;2.00;;
3991;SDS011;2010;48.194;16.394;2023-11-21T01:13:30;4.37;;;2.10;;
3991;SDS011;2010;48.194;16.394;2023-11-21T01:16:06;9.90;;;2.70;;
3991;SDS011;2010;48.194;16.394;2023-11-21T01:18:44;7.07;;;2.40;;
3991;SDS011;2010;48.194;16.394;2023-11-21T01:21:15;3.50;;;1.93;;
3991;SDS011;2010;48.194;16.394;2023-11-21T01:23:48;4.00;;;2.13;;
3991;SDS011;2010;48.194;16.394;2023-11-21T01:26:19;7.43;;;2.00;;
3991;SDS011;2010;48.194;16.394;2023-11-21T01:28:49;5.10;;;2.40;;
3991;SDS011;2010;48.194;16.394;2023-11-21T01:31:22;4.67;;;1.87;;
3991;SDS011;2010;48.194;16.394;2023-11-21T01:33:52;6.00;;;2.23;;
3991;SDS011;2010;48.194;16.394;2023-11-21T01:36:22;9.23;;;2.30;;
3991;SDS011;2010;48.194;16.394;2023-11-21T01:38:54;7.43;;;2.90;;
3991;SDS011;2010;48.194;16.394;2023-11-21T01:41:26;7.00;;;3.33;;
3991;SDS011;2010;48.194;16.394;2023-11-21T01:43:58;3.90;;;1.73;;
3991;SDS011;2010;48.194;16.394;2023-11-21T01:46:27;3.90;;;2.10;;
3991;SDS011;2010;48.194;16.394;2023-11-21T01:48:59;6.60;;;1.93;;
3991;SDS011;2010;48.194;16.394;2023-11-21T01:51:28;9.80;;;2.60;;
3991;SDS011;2010;48.194;16.394;2023-11-21T01:54:03;3.80;;;2.40;;
3991;SDS011;2010;48.194;16.394;2023-11-21T01:56:44;7.80;;;2.60;;
3991;SDS011;2010;48.194;16.394;2023-11-21T01:59:23;8.07;;;2.10;;
3991;SDS011;2010;48.194;16.394;2023-11-21T02:02:00;5.73;;;2.37;;
3991;SDS011;2010;48.194;16.394;2023-11-21T02:04:45;4.43;;;2.00;;
3991;SDS011;2010;48.194;16.394;2023-11-21T02:07:17;5.80;;;2.60;;
3991;SDS011;2010;48.194;16.394;2023-11-21T02:09:55;10.10;;;2.70;;
3991;SDS011;2010;48.194;16.394;2023-11-21T02:12:38;6.40;;;2.73;;
3991;SDS011;2010;48.194;16.394;2023-11-21T02:15:12;7.60;;;3.03;;
3991;SDS011;2010;48.194;16.394;2023-11-21T02:17:50;3.97;;;1.73;;
3991;SDS011;2010;48.194;16.394;2023-11-21T02:20:20;4.43;;;1.93;;
3991;SDS011;2010;48.194;16.394;2023-11-21T02:22:57;9.60;;;2.37;;
3991;SDS011;2010;48.194;16.394;2023-11-21T02:25:30;7.33;;;2.53;;
3991;SDS011;2010;48.194;16.394;2023-11-21T02:28:02;4.70;;;1.90;;
3991;SDS011;2010;48.194;16.394;2023-11-21T02:30:35;4.90;;;1.70;;
3991;SDS011;2010;48.194;16.394;2023-11-21T02:33:07;6.37;;;2.20;;
3991;SDS011;2010;48.194;16.394;2023-11-21T02:35:43;5.33;;;1.90;;
3991;SDS011;2010;48.194;16.394;2023-11-21T02:38:26;3.90;;;1.93;;
3991;SDS011;2010;48.194;16.394;2023-11-21T02:40:57;5.23;;;1.90;;
3991;SDS011;2010;48.194;16.394;2023-11-21T02:43:27;4.37;;;1.90;;
3991;SDS011;2010;48.194;16.394;2023-11-21T02:45:58;10.30;;;1.77;;
3991;SDS011;2010;48.194;16.394;2023-11-21T02:48:26;5.57;;;1.80;;
3991;SDS011;2010;48.194;16.394;2023-11-21T02:50:58;3.13;;;2.07;;
3991;SDS011;2010;48.194;16.394;2023-11-21T02:53:34;6.00;;;1.77;;
3991;SDS011;2010;48.194;16.394;2023-11-21T02:56:07;4.83;;;1.90;;
3991;SDS011;2010;48.194;16.394;2023-11-21T02:58:45;3.70;;;1.67;;
3991;SDS011;2010;48.194;16.394;2023-11-21T03:01:23;3.87;;;1.73;;
3991;SDS011;2010;48.194;16.394;2023-11-21T03:03:56;4.70;;;2.00;;
3991;SDS011;2010;48.194;16.394;2023-11-21T03:06:39;3.43;;;1.80;;
3991;SDS011;2010;48.194;16.394;2023-11-21T03:09:14;6.33;;;2.73;;
3991;SDS011;2010;48.194;16.394;2023-11-21T03:11:44;5.07;;;1.80;;
3991;SDS011;2010;48.194;16.394;2023-11-21T03:14:15;4.17;;;2.10;;
3991;SDS011;2010;48.194;16.394;2023-11-21T03:16:56;8.33;;;2.10;;
3991;SDS011;2010;48.194;16.394;2023-11-21T03:19:25;6.27;;;1.90;;
3991;SDS011;2010;48.194;16.394;2023-11-21T03:21:56;2.77;;;1.53;;
3991;SDS011;2010;48.194;16.394;2023-11-21T03:24:28;6.37;;;2.20;;
3991;SDS011;2010;48.194;16.394;2023-11-21T03:26:58;3.73;;;1.60;;
3991;SDS011;2010;48.194;16.394;2023-11-21T03:29:26;5.00;;;2.10;;
3991;SDS011;2010;48.194;16.394;2023-11-21T03:31:57;3.87;;;2.13;;
3991;SDS011;2010;48.194;16.394;2023-11-21T03:34:29;8.07;;;1.73;;
3991;SDS011;2010;48.194;16.394;2023-11-21T03:36:59;5.60;;;1.50;;
3991;SDS011;2010;48.194;16.394;2023-11-21T03:39:33;7.10;;;2.37;;
3991;SDS011;2010;48.194;16.394;2023-11-21T03:42:08;7.57;;;1.97;;
3991;SDS011;2010;48.194;16.394;2023-11-21T03:44:37;4.40;;;1.60;;
3991;SDS011;2010;48.194;16.394;2023-11-21T03:47:08;3.70;;;1.97;;
3991;SDS011;2010;48.194;16.394;2023-11-21T03:49:39;5.13;;;1.60;;
3991;SDS011;2010;48.194;16.394;2023-11-21T03:52:11;5.40;;;1.73;;
3991;SDS011;2010;48.194;16.394;2023-11-21T03:54:44;3.00;;;1.70;;
3991;SDS011;2010;48.194;16.394;2023-11-21T03:57:13;3.13;;;1.53;;
3991;SDS011;2010;48.194;16.394;2023-11-21T03:59:43;5.33;;;1.80;;
3991;SDS011;2010;48.194;16.394;2023-11-21T04:02:14;7.90;;;1.60;;
3991;SDS011;2010;48.194;16.394;2023-11-21T04:05:01;4.77;;;1.77;;
3991;SDS011;2010;48.194;16.394;2023-11-21T04:07:31;5.37;;;1.90;;
3991;SDS011;2010;48.194;16.394;2023-11-21T04:10:04;2.60;;;1.37;;
3991;SDS011;2010;48.194;16.394;2023-11-21T04:12:36;3.90;;;1.67;;
3991;SDS011;2010;48.194;16.394;2023-11-21T04:15:06;5.90;;;2.00;;
3991;SDS011;2010;48.194;16.394;2023-11-21T04:17:48;5.67;;;1.80;;
3991;SDS011;2010;48.194;16.394;2023-11-21T04:20:20;4.70;;;1.47;;
3991;SDS011;2010;48.194;16.394;2023-11-21T04:22:51;5.47;;;2.00;;
3991;SDS011;2010;48.194;16.394;2023-11-21T04:25:24;7.63;;;1.90;;
3991;SDS011;2010;48.194;16.394;2023-11-21T04:27:56;6.00;;;1.80;;
3991;SDS011;2010;48.194;16.394;2023-11-21T04:30:32;4.47;;;1.67;;
3991;SDS011;2010;48.194;16.394;2023-11-21T04:33:09;6.60;;;1.90;;
3991;SDS011;2010;48.194;16.394;2023-11-21T04:35:43;5.23;;;1.97;;
3991;SDS011;2010;48.194;16.394;2023-11-21T04:38:13;5.87;;;1.50;;
3991;SDS011;2010;48.194;16.394;2023-11-21T04:40:46;8.13;;;1.83;;
3991;SDS011;2010;48.194;16.394;2023-11-21T04:43:16;5.70;;;1.53;;
3991;SDS011;2010;48.194;16.394;2023-11-21T04:45:51;4.27;;;1.67;;
3991;SDS011;2010;48.194;16.394;2023-11-21T04:48:28;4.13;;;1.70;;
3991;SDS011;2010;48.194;16.394;2023-11-21T04:51:03;4.60;;;1.90;;
3991;SDS011;2010;48.194;16.394;2023-11-21T04:53:46;3.73;;;1.80;;
3991;SDS011;2010;48.194;16.394;2023-11-21T04:56:17;6.10;;;1.90;;
3991;SDS011;2010;48.194;16.394;2023-11-21T04:58:54;3.70;;;1.77;;
3991;SDS011;2010;48.194;16.394;2023-11-21T05:01:31;5.63;;;2.37;;
3991;SDS011;2010;48.194;16.394;2023-11-21T05:04:00;2.60;;;2.17;;
3991;SDS011;2010;48.194;16.394;2023-11-21T05:06:34;6.07;;;2.17;;
3991;SDS011;2010;48.194;16.394;2023-11-21T05:09:04;12.40;;;2.63;;
3991;SDS011;2010;48.194;16.394;2023-11-21T05:11:41;5.40;;;2.53;;
3991;SDS011;2010;48.194;16.394;2023-11-21T05:14:12;5.00;;;2.30;;
3991;SDS011;2010;48.194;16.394;2023-11-21T05:16:46;7.93;;;2.73;;
3991;SDS011;2010;48.194;16.394;2023-11-21T05:19:16;5.90;;;2.50;;
3991;SDS011;2010;48.194;16.394;2023-11-21T05:21:54;9.77;;;2.30;;
3991;SDS011;2010;48.194;16.394;2023-11-21T05:24:32;9.00;;;3.33;;
3991;SDS011;2010;48.194;16.394;2023-11-21T05:27:05;8.90;;;2.20;;
3991;SDS011;2010;48.194;16.394;2023-11-21T05:29:35;4.43;;;2.00;;
3991;SDS011;2010;48.194;16.394;2023-11-21T05:32:05;12.43;;;2.80;;
3991;SDS011;2010;48.194;16.394;2023-11-21T05:34:37;6.17;;;2.43;;
3991;SDS011;2010;48.194;16.394;2023-11-21T05:37:08;4.80;;;2.13;;
3991;SDS011;2010;48.194;16.394;2023-11-21T05:39:39;12.63;;;2.90;;
3991;SDS011;2010;48.194;16.394;2023-11-21T05:42:14;6.50;;;2.57;;
3991;SDS011;2010;48.194;16.394;2023-11-21T05:44:45;7.37;;;2.67;;
3991;SDS011;2010;48.194;16.394;2023-11-21T05:47:16;5.37;;;2.70;;
3991;SDS011;2010;48.194;16.394;2023-11-21T05:49:50;5.30;;;2.70;;
3991;SDS011;2010;48.194;16.394;2023-11-21T05:52:20;5.00;;;2.30;;
3991;SDS011;2010;48.194;16.394;2023-11-21T05:54:50;6.53;;;3.50;;
3991;SDS011;2010;48.194;16.394;2023-11-21T05:57:25;3.90;;;2.50;;
3991;SDS011;2010;48.194;16.394;2023-11-21T05:59:56;10.80;;;2.90;;
3991;SDS011;2010;48.194;16.394;2023-11-21T06:02:33;4.80;;;2.20;;
3991;SDS011;2010;48.194;16.394;2023-11-21T06:05:14;6.93;;;3.30;;
3991;SDS011;2010;48.194;16.394;2023-11-21T06:07:42;11.60;;;2.90;;
3991;SDS011;2010;48.194;16.394;2023-11-21T06:10:12;5.83;;;3.00;;
3991;SDS011;2010;48.194;16.394;2023-11-21T06:12:54;7.53;;;2.90;;
3991;SDS011;2010;48.194;16.394;2023-11-21T06:15:23;9.33;;;3.40;;
3991;SDS011;2010;48.194;16.394;2023-11-21T06:17:54;5.77;;;3.20;;
3991;SDS011;2010;48.194;16.394;2023-11-21T06:20:27;6.37;;;3.70;;
3991;SDS011;2010;48.194;16.394;2023-11-21T06:22:56;10.30;;;4.20;;
3991;SDS011;2010;48.194;16.394;2023-11-21T06:25:30;12.07;;;3.93;;
3991;SDS011;2010;48.194;16.394;2023-11-21T06:28:05;13.20;;;4.10;;
3991;SDS011;2010;48.194;16.394;2023-11-21T06:30:40;13.83;;;4.10;;
3991;SDS011;2010;48.194;16.394;2023-11-21T06:33:12;9.30;;;3.83;;
3991;SDS011;2010;48.194;16.394;2023-11-21T06:35:51;19.50;;;3.53;;
3991;SDS011;2010;48.194;16.394;2023-11-21T06:38:24;12.23;;;3.00;;
3991;SDS011;2010;48.194;16.394;2023-11-21T06:40:56;8.57;;;3.63;;
3991;SDS011;2010;48.194;16.394;2023-11-21T06:46:42;10.13;;;3.93;;
3991;SDS011;2010;48.194;16.394;2023-11-21T06:49:13;8.10;;;3.40;;
3991;SDS011;2010;48.194;16.394;2023-11-21T06:51:44;16.23;;;4.60;;
3991;SDS011;2010;48.194;16.394;2023-11-21T06:54:15;11.20;;;3.97;;
3991;SDS011;2010;48.194;16.394;2023-11-21T06:56:46;13.57;;;4.30;;
3991;SDS011;2010;48.194;16.394;2023-11-21T06:59:19;14.67;;;4.33;;
3991;SDS011;2010;48.194;16.394;2023-11-21T07:02:02;14.50;;;4.93;;
3991;SDS011;2010;48.194;16.394;2023-11-21T07:04:38;9.63;;;4.40;;
3991;SDS011;2010;48.194;16.394;2023-11-21T07:07:09;12.53;;;3.97;;
3991;SDS011;2010;48.194;16.394;2023-11-21T07:09:38;16.57;;;4.73;;
3991;SDS011;2010;48.194;16.394;2023-11-21T07:12:10;7.60;;;4.03;;
3991;SDS011;2010;48.194;16.394;2023-11-21T07:14:41;10.17;;;4.60;;
3991;SDS011;2010;48.194;16.394;2023-11-21T07:17:27;10.60;;;4.23;;
3991;SDS011;2010;48.194;16.394;2023-11-21T07:20:00;6.93;;;3.33;;
3991;SDS011;2010;48.194;16.394;2023-11-21T07:22:33;9.57;;;4.03;;
3991;SDS011;2010;48.194;16.394;2023-11-21T07:25:07;8.20;;;4.10;;
3991;SDS011;2010;48.194;16.394;2023-11-21T07:27:47;11.23;;;4.20;;
3991;SDS011;2010;48.194;16.394;2023-11-21T07:30:30;10.90;;;4.73;;
3991;SDS011;2010;48.194;16.394;2023-11-21T07:33:11;8.27;;;3.87;;
3991;SDS011;2010;48.194;16.394;2023-11-21T07:35:39;8.63;;;4.27;;
3991;SDS011;2010;48.194;16.394;2023-11-21T07:38:10;11.20;;;4.60;;
3991;SDS011;2010;48.194;16.394;2023-11-21T07:40:41;12.97;;;3.87;;
3991;SDS011;2010;48.194;16.394;2023-11-21T07:43:20;11.73;;;4.67;;
3991;SDS011;2010;48.194;16.394;2023-11-21T07:45:54;9.97;;;3.60;;
3991;SDS011;2010;48.194;16.394;2023-11-21T07:48:31;11.80;;;4.73;;
3991;SDS011;2010;48.194;16.394;2023-11-21T07:51:03;12.30;;;4.40;;
3991;SDS011;2010;48.194;16.394;2023-11-21T07:53:35;8.40;;;3.37;;
3991;SDS011;2010;48.194;16.394;2023-11-21T07:56:12;9.40;;;3.60;;
3991;SDS011;2010;48.194;16.394;2023-11-21T07:58:42;8.43;;;3.27;;
3991;SDS011;2010;48.194;16.394;2023-11-21T08:01:11;8.33;;;3.90;;
3991;SDS011;2010;48.194;16.394;2023-11-21T08:03:44;11.67;;;4.53;;
3991;SDS011;2010;48.194;16.394;2023-11-21T08:06:13;9.30;;;3.33;;
3991;SDS011;2010;48.194;16.394;2023-11-21T08:08:45;7.17;;;2.73;;
3991;SDS011;2010;48.194;16.394;2023-11-21T08:11:19;10.00;;;3.03;;
3991;SDS011;2010;48.194;16.394;2023-11-21T08:13:50;5.00;;;2.90;;
3991;SDS011;2010;48.194;16.394;2023-11-21T08:16:21;8.80;;;3.47;;
3991;SDS011;2010;48.194;16.394;2023-11-21T08:19:05;10.40;;;3.40;;
3991;SDS011;2010;48.194;16.394;2023-11-21T08:21:38;12.27;;;3.43;;
3991;SDS011;2010;48.194;16.394;2023-11-21T08:24:09;7.53;;;3.33;;
3991;SDS011;2010;48.194;16.394;2023-11-21T08:26:38;6.03;;;2.90;;
3991;SDS011;2010;48.194;16.394;2023-11-21T08:29:10;7.30;;;3.23;;
3991;SDS011;2010;48.194;16.394;2023-11-21T08:31:41;7.40;;;3.40;;
3991;SDS011;2010;48.194;16.394;2023-11-21T08:34:18;7.23;;;3.30;;
3991;SDS011;2010;48.194;16.394;2023-11-21T08:36:48;8.00;;;2.67;;
3991;SDS011;2010;48.194;16.394;2023-11-21T08:39:25;8.20;;;2.50;;
3991;SDS011;2010;48.194;16.394;2023-11-21T08:42:04;9.60;;;3.80;;
3991;SDS011;2010;48.194;16.394;2023-11-21T08:44:37;8.13;;;3.27;;
3991;SDS011;2010;48.194;16.394;2023-11-21T08:47:20;8.67;;;3.10;;
3991;SDS011;2010;48.194;16.394;2023-11-21T08:49:55;4.60;;;2.77;;
3991;SDS011;2010;48.194;16.394;2023-11-21T08:52:34;6.73;;;2.30;;
3991;SDS011;2010;48.194;16.394;2023-11-21T08:55:06;12.47;;;3.03;;
3991;SDS011;2010;48.194;16.394;2023-11-21T08:57:36;6.00;;;2.50;;
3991;SDS011;2010;48.194;16.394;2023-11-21T09:00:16;8.17;;;2.33;;
3991;SDS011;2010;48.194;16.394;2023-11-21T09:02:50;10.70;;;2.80;;
3991;SDS011;2010;48.194;16.394;2023-11-21T09:05:28;3.90;;;2.03;;
3991;SDS011;2010;48.194;16.394;2023-11-21T09:07:59;6.40;;;2.70;;
3991;SDS011;2010;48.194;16.394;2023-11-21T09:10:28;7.40;;;3.10;;
3991;SDS011;2010;48.194;16.394;2023-11-21T09:13:00;6.70;;;3.43;;
3991;SDS011;2010;48.194;16.394;2023-11-21T09:15:33;6.90;;;2.73;;
3991;SDS011;2010;48.194;16.394;2023-11-21T09:18:04;6.77;;;2.87;;
3991;SDS011;2010;48.194;16.394;2023-11-21T09:20:38;7.60;;;2.70;;
3991;SDS011;2010;48.194;16.394;2023-11-21T09:23:13;10.37;;;2.60;;
3991;SDS011;2010;48.194;16.394;2023-11-21T09:25:46;10.37;;;3.20;;
3991;SDS011;2010;48.194;16.394;2023-11-21T09:28:17;7.47;;;3.27;;
3991;SDS011;2010;48.194;16.394;2023-11-21T09:30:47;9.73;;;2.83;;
3991;SDS011;2010;48.194;16.394;2023-11-21T09:33:17;5.50;;;2.70;;
3991;SDS011;2010;48.194;16.394;2023-11-21T09:36:04;4.17;;;2.10;;
3991;SDS011;2010;48.194;16.394;2023-11-21T09:38:35;4.30;;;2.10;;
3991;SDS011;2010;48.194;16.394;2023-11-21T09:41:06;6.33;;;2.43;;
3991;SDS011;2010;48.194;16.394;2023-11-21T09:43:46;5.90;;;2.07;;
3991;SDS011;2010;48.194;16.394;2023-11-21T09:46:15;8.03;;;2.40;;
3991;SDS011;2010;48.194;16.394;2023-11-21T09:48:51;3.80;;;2.20;;
3991;SDS011;2010;48.194;16.394;2023-11-21T09:51:35;5.23;;;1.87;;
3991;SDS011;2010;48.194;16.394;2023-11-21T09:54:08;6.30;;;2.30;;
3991;SDS011;2010;48.194;16.394;2023-11-21T09:56:49;3.70;;;2.17;;
3991;SDS011;2010;48.194;16.394;2023-11-21T09:59:20;10.00;;;2.20;;
3991;SDS011;2010;48.194;16.394;2023-11-21T10:01:51;4.20;;;2.20;;
3991;SDS011;2010;48.194;16.394;2023-11-21T10:04:22;6.37;;;1.70;;
3991;SDS011;2010;48.194;16.394;2023-11-21T10:06:51;2.33;;;1.63;;
3991;SDS011;2010;48.194;16.394;2023-11-21T10:09:20;5.53;;;1.70;;
3991;SDS011;2010;48.194;16.394;2023-11-21T10:11:55;4.10;;;1.60;;
3991;SDS011;2010;48.194;16.394;2023-11-21T10:14:28;3.67;;;1.67;;
3991;SDS011;2010;48.194;16.394;2023-11-21T10:16:58;4.13;;;1.60;;
3991;SDS011;2010;48.194;16.394;2023-11-21T10:19:30;1.60;;;1.20;;
3991;SDS011;2010;48.194;16.394;2023-11-21T10:22:06;5.00;;;1.50;;
3991;SDS011;2010;48.194;16.394;2023-11-21T10:24:39;2.10;;;1.60;;
3991;SDS011;2010;48.194;16.394;2023-11-21T10:27:22;2.90;;;1.63;;
3991;SDS011;2010;48.194;16.394;2023-11-21T10:30:00;1.90;;;1.43;;
3991;SDS011;2010;48.194;16.394;2023-11-21T10:32:32;4.20;;;1.53;;
3991;SDS011;2010;48.194;16.394;2023-11-21T10:35:09;4.37;;;1.20;;
3991;SDS011;2010;48.194;16.394;2023-11-21T10:37:52;4.40;;;1.40;;
3991;SDS011;2010;48.194;16.394;2023-11-21T10:40:28;3.70;;;1.33;;
3991;SDS011;2010;48.194;16.394;2023-11-21T10:43:01;4.20;;;1.93;;
3991;SDS011;2010;48.194;16.394;2023-11-21T10:45:39;3.37;;;1.27;;
3991;SDS011;2010;48.194;16.394;2023-11-21T10:48:10;2.93;;;1.30;;
3991;SDS011;2010;48.194;16.394;2023-11-21T10:50:45;1.57;;;1.47;;
3991;SDS011;2010;48.194;16.394;2023-11-21T10:53:40;7.30;;;1.23;;
3991;SDS011;2010;48.194;16.394;2023-11-21T10:56:15;1.80;;;1.13;;
3991;SDS011;2010;48.194;16.394;2023-11-21T10:58:49;2.70;;;1.40;;
3991;SDS011;2010;48.194;16.394;2023-11-21T11:01:31;1.10;;;0.93;;
3991;SDS011;2010;48.194;16.394;2023-11-21T11:04:06;1.20;;;1.07;;
3991;SDS011;2010;48.194;16.394;2023-11-21T11:06:44;3.53;;;1.30;;
3991;SDS011;2010;48.194;16.394;2023-11-21T11:09:18;1.87;;;1.00;;
3991;SDS011;2010;48.194;16.394;2023-11-21T11:11:51;2.17;;;1.30;;
3991;SDS011;2010;48.194;16.394;2023-11-21T11:14:22;2.10;;;1.00;;
3991;SDS011;2010;48.194;16.394;2023-11-21T11:17:00;3.07;;;1.50;;
3991;SDS011;2010;48.194;16.394;2023-11-21T11:19:33;1.40;;;1.30;;
3991;SDS011;2010;48.194;16.394;2023-11-21T11:22:08;6.00;;;1.50;;
3991;SDS011;2010;48.194;16.394;2023-11-21T11:25:03;3.40;;;1.20;;
3991;SDS011;2010;48.194;16.394;2023-11-21T11:27:48;1.00;;;0.70;;
3991;SDS011;2010;48.194;16.394;2023-11-21T11:30:29;2.30;;;1.33;;
3991;SDS011;2010;48.194;16.394;2023-11-21T11:33:10;3.07;;;1.20;;
3991;SDS011;2010;48.194;16.394;2023-11-21T11:35:48;4.70;;;1.43;;
3991;SDS011;2010;48.194;16.394;2023-11-21T11:38:23;1.70;;;1.60;;
3991;SDS011;2010;48.194;16.394;2023-11-21T11:40:54;3.57;;;1.30;;
3991;SDS011;2010;48.194;16.394;2023-11-21T11:43:26;2.50;;;1.20;;
3991;SDS011;2010;48.194;16.394;2023-11-21T11:46:02;1.30;;;1.17;;
3991;SDS011;2010;48.194;16.394;2023-11-21T11:48:35;3.13;;;1.40;;
3991;SDS011;2010;48.194;16.394;2023-11-21T11:51:06;3.90;;;1.70;;
3991;SDS011;2010;48.194;16.394;2023-11-21T11:53:44;4.07;;;1.90;;
3991;SDS011;2010;48.194;16.394;2023-11-21T11:56:29;5.40;;;1.87;;
3991;SDS011;2010;48.194;16.394;2023-11-21T11:59:08;5.17;;;2.10;;
3991;SDS011;2010;48.194;16.394;2023-11-21T12:01:45;2.73;;;1.57;;
3991;SDS011;2010;48.194;16.394;2023-11-21T12:04:26;2.40;;;1.57;;
3991;SDS011;2010;48.194;16.394;2023-11-21T12:07:06;5.33;;;1.50;;
3991;SDS011;2010;48.194;16.394;2023-11-21T12:09:35;3.67;;;1.60;;
3991;SDS011;2010;48.194;16.394;2023-11-21T12:12:09;1.50;;;0.90;;
3991;SDS011;2010;48.194;16.394;2023-11-21T12:14:40;1.63;;;0.80;;
3991;SDS011;2010;48.194;16.394;2023-11-21T12:17:10;2.80;;;1.10;;
3991;SDS011;2010;48.194;16.394;2023-11-21T12:19:44;2.93;;;1.13;;
3991;SDS011;2010;48.194;16.394;2023-11-21T12:22:15;3.70;;;1.30;;
3991;SDS011;2010;48.194;16.394;2023-11-21T12:24:46;2.50;;;1.77;;
3991;SDS011;2010;48.194;16.394;2023-11-21T12:27:28;1.40;;;1.30;;
3991;SDS011;2010;48.194;16.394;2023-11-21T12:29:56;1.30;;;1.20;;
3991;SDS011;2010;48.194;16.394;2023-11-21T12:32:26;4.60;;;1.80;;
3991;SDS011;2010;48.194;16.394;2023-11-21T12:34:59;4.77;;;2.00;;
3991;SDS011;2010;48.194;16.394;2023-11-21T12:37:30;1.60;;;1.50;;
3991;SDS011;2010;48.194;16.394;2023-11-21T12:39:58;3.50;;;1.47;;
3991;SDS011;2010;48.194;16.394;2023-11-21T12:42:31;4.80;;;1.70;;
3991;SDS011;2010;48.194;16.394;2023-11-21T12:45:08;2.60;;;1.50;;
3991;SDS011;2010;48.194;16.394;2023-11-21T12:47:43;6.50;;;2.13;;
3991;SDS011;2010;48.194;16.394;2023-11-21T12:50:23;6.30;;;2.20;;
3991;SDS011;2010;48.194;16.394;2023-11-21T12:52:58;6.30;;;2.03;;
3991;SDS011;2010;48.194;16.394;2023-11-21T12:55:33;5.17;;;2.07;;
3991;SDS011;2010;48.194;16.394;2023-11-21T12:58:07;2.33;;;1.73;;
3991;SDS011;2010;48.194;16.394;2023-11-21T13:00:44;6.33;;;2.50;;
3991;SDS011;2010;48.194;16.394;2023-11-21T13:03:16;2.30;;;1.80;;
3991;SDS011;2010;48.194;16.394;2023-11-21T13:05:55;6.63;;;2.13;;
3991;SDS011;2010;48.194;16.394;2023-11-21T13:08:25;4.00;;;2.33;;
3991;SDS011;2010;48.194;16.394;2023-11-21T13:10:58;6.30;;;2.30;;
3991;SDS011;2010;48.194;16.394;2023-11-21T13:13:30;4.13;;;2.60;;
3991;SDS011;2010;48.194;16.394;2023-11-21T13:16:02;8.70;;;2.30;;
3991;SDS011;2010;48.194;16.394;2023-11-21T13:18:32;4.77;;;2.00;;
3991;SDS011;2010;48.194;16.394;2023-11-21T13:21:05;4.73;;;2.10;;
3991;SDS011;2010;48.194;16.394;2023-11-21T13:23:40;5.33;;;2.07;;
3991;SDS011;2010;48.194;16.394;2023-11-21T13:26:13;3.13;;;2.70;;
3991;SDS011;2010;48.194;16.394;2023-11-21T13:28:52;9.00;;;2.63;;
3991;SDS011;2010;48.194;16.394;2023-11-21T13:31:24;7.83;;;2.57;;
3991;SDS011;2010;48.194;16.394;2023-11-21T13:34:00;6.60;;;3.27;;
3991;SDS011;2010;48.194;16.394;2023-11-21T13:36:35;4.30;;;2.33;;
3991;SDS011;2010;48.194;16.394;2023-11-21T13:39:09;3.63;;;2.10;;
3991;SDS011;2010;48.194;16.394;2023-11-21T13:41:44;11.63;;;5.10;;
3991;SDS011;2010;48.194;16.394;2023-11-21T13:44:23;11.10;;;7.97;;
3991;SDS011;2010;48.194;16.394;2023-11-21T13:47:05;9.27;;;5.60;;
3991;SDS011;2010;48.194;16.394;2023-11-21T13:49:36;11.57;;;5.90;;
3991;SDS011;2010;48.194;16.394;2023-11-21T13:52:09;7.73;;;3.27;;
3991;SDS011;2010;48.194;16.394;2023-11-21T13:54:43;5.83;;;3.13;;
3991;SDS011;2010;48.194;16.394;2023-11-21T13:57:12;7.90;;;3.47;;
3991;SDS011;2010;48.194;16.394;2023-11-21T13:59:44;6.13;;;2.63;;
3991;SDS011;2010;48.194;16.394;2023-11-21T14:02:14;3.23;;;1.90;;
3991;SDS011;2010;48.194;16.394;2023-11-21T14:04:52;4.47;;;2.43;;
3991;SDS011;2010;48.194;16.394;2023-11-21T14:07:30;3.87;;;2.40;;
3991;SDS011;2010;48.194;16.394;2023-11-21T14:10:04;5.63;;;1.90;;
3991;SDS011;2010;48.194;16.394;2023-11-21T14:12:43;3.47;;;2.10;;
3991;SDS011;2010;48.194;16.394;2023-11-21T14:15:24;25.00;;;10.27;;
3991;SDS011;2010;48.194;16.394;2023-11-21T14:17:54;5.20;;;2.67;;
3991;SDS011;2010;48.194;16.394;2023-11-21T14:20:30;9.20;;;3.70;;
3991;SDS011;2010;48.194;16.394;2023-11-21T14:23:04;6.93;;;4.80;;
3991;SDS011;2010;48.194;16.394;2023-11-21T14:25:34;10.10;;;4.10;;
3991;SDS011;2010;48.194;16.394;2023-11-21T14:28:05;6.07;;;2.87;;
3991;SDS011;2010;48.194;16.394;2023-11-21T14:30:42;4.97;;;4.23;;
3991;SDS011;2010;48.194;16.394;2023-11-21T14:33:11;3.70;;;3.27;;
3991;SDS011;2010;48.194;16.394;2023-11-21T14:35:55;7.37;;;3.77;;
3991;SDS011;2010;48.194;16.394;2023-11-21T14:38:29;6.93;;;4.10;;
3991;SDS011;2010;48.194;16.394;2023-11-21T14:40:59;7.27;;;3.30;;
3991;SDS011;2010;48.194;16.394;2023-11-21T14:43:28;5.63;;;3.43;;
3991;SDS011;2010;48.194;16.394;2023-11-21T14:46:08;7.37;;;4.70;;
3991;SDS011;2010;48.194;16.394;2023-11-21T14:48:47;4.30;;;3.50;;
3991;SDS011;2010;48.194;16.394;2023-11-21T14:51:25;3.40;;;3.10;;
3991;SDS011;2010;48.194;16.394;2023-11-21T14:54:00;9.63;;;2.60;;
3991;SDS011;2010;48.194;16.394;2023-11-21T14:56:33;13.00;;;7.40;;
3991;SDS011;2010;48.194;16.394;2023-11-21T14:59:05;6.73;;;3.37;;
3991;SDS011;2010;48.194;16.394;2023-11-21T15:01:43;3.10;;;2.67;;
3991;SDS011;2010;48.194;16.394;2023-11-21T15:04:22;3.57;;;2.93;;
3991;SDS011;2010;48.194;16.394;2023-11-21T15:07:03;5.10;;;3.23;;
3991;SDS011;2010;48.194;16.394;2023-11-21T15:09:32;4.60;;;3.23;;
3991;SDS011;2010;48.194;16.394;2023-11-21T15:12:09;7.03;;;3.37;;
3991;SDS011;2010;48.194;16.394;2023-11-21T15:14:55;4.93;;;3.07;;
3991;SDS011;2010;48.194;16.394;2023-11-21T15:17:38;5.97;;;2.40;;
3991;SDS011;2010;48.194;16.394;2023-11-21T15:20:15;8.63;;;2.50;;
3991;SDS011;2010;48.194;16.394;2023-11-21T15:22:50;4.10;;;2.60;;
3991;SDS011;2010;48.194;16.394;2023-11-21T15:25:20;4.87;;;2.73;;
3991;SDS011;2010;48.194;16.394;2023-11-21T15:27:50;5.30;;;3.17;;
3991;SDS011;2010;48.194;16.394;2023-11-21T15:30:19;8.93;;;4.10;;
3991;SDS011;2010;48.194;16.394;2023-11-21T15:33:05;5.57;;;3.53;;
3991;SDS011;2010;48.194;16.394;2023-11-21T15:35:38;3.93;;;3.63;;
3991;SDS011;2010;48.194;16.394;2023-11-21T15:38:09;7.30;;;5.00;;
3991;SDS011;2010;48.194;16.394;2023-11-21T15:40:39;6.03;;;4.10;;
3991;SDS011;2010;48.194;16.394;2023-11-21T15:43:11;7.40;;;3.87;;
3991;SDS011;2010;48.194;16.394;2023-11-21T15:45:47;6.63;;;3.77;;